createdAt,value
2022-07-27T00:00:57.109Z,62.12
2022-07-27T00:06:02.103Z,62.27
2022-07-27T00:11:06.326Z,62.30
2022-07-27T00:16:10.020Z,62.08
2022-07-27T00:21:14.927Z,62.11
2022-07-27T00:26:18.414Z,62.39
2022-07-27T00:31:21.851Z,61.93
2022-07-27T00:36:26.711Z,62.17
2022-07-27T00:41:30.073Z,62.74
2022-07-27T00:46:33.997Z,62.82
2022-07-27T00:51:38.887Z,62.66
2022-07-27T00:56:42.958Z,62.97
2022-07-27T01:01:46.146Z,62.47
2022-07-27T01:06:51.186Z,63.11
2022-07-27T01:11:54.577Z,63.67
2022-07-27T01:16:57.892Z,63.58
2022-07-27T01:22:02.729Z,63.48
2022-07-27T01:27:06.760Z,64.01
2022-07-27T01:32:09.942Z,63.14
2022-07-27T01:37:14.693Z,63.84
2022-07-27T01:42:18.015Z,63.59
2022-07-27T01:47:21.466Z,63.42
2022-07-27T01:52:26.324Z,63.71
2022-07-27T01:57:29.622Z,63.07
2022-07-27T02:02:32.942Z,63.22
2022-07-27T02:07:37.689Z,63.50
2022-07-27T02:12:41.039Z,63.73
2022-07-27T02:18:04.366Z,63.51
2022-07-27T02:23:29.262Z,63.05
2022-07-27T02:28:32.654Z,63.18
2022-07-27T02:33:36.068Z,62.94
2022-07-27T02:38:40.779Z,62.62
2022-07-27T02:43:44.150Z,62.40
2022-07-27T02:48:47.648Z,62.03
2022-07-27T02:53:52.460Z,61.69
2022-07-27T02:58:56.151Z,61.33
2022-07-27T03:03:59.494Z,60.95
2022-07-27T03:09:05.779Z,60.56
2022-07-27T03:14:09.312Z,60.38
2022-07-27T03:19:13.439Z,59.88
2022-07-27T03:24:18.552Z,58.59
2022-07-27T03:29:21.982Z,56.68
2022-07-27T03:34:25.362Z,56.22
2022-07-27T03:39:30.198Z,55.97
2022-07-27T03:44:33.570Z,55.93
2022-07-27T03:49:37.394Z,55.12
2022-07-27T03:54:41.877Z,53.70
2022-07-27T03:59:45.277Z,51.71
2022-07-27T04:04:48.611Z,43.28
2022-07-27T04:09:53.301Z,38.12
2022-07-27T04:14:56.673Z,34.93
2022-07-27T04:19:59.807Z,33.41
2022-07-27T04:25:04.667Z,30.82
2022-07-27T04:30:09.894Z,29.46
2022-07-27T04:35:13.762Z,28.01
2022-07-27T04:40:18.515Z,27.09
2022-07-27T04:45:22.337Z,25.92
2022-07-27T04:50:25.706Z,23.88
2022-07-27T04:55:30.475Z,22.47
2022-07-27T05:00:33.839Z,21.22
2022-07-27T05:05:37.403Z,22.35
2022-07-27T05:10:42.108Z,20.06
2022-07-27T05:15:53.919Z,20.53
2022-07-27T05:20:59.209Z,19.28
2022-07-27T05:26:04.325Z,20.44
2022-07-27T05:31:07.724Z,19.54
2022-07-27T05:36:11.046Z,20.12
2022-07-27T05:41:15.932Z,18.74
2022-07-27T05:46:19.246Z,17.56
2022-07-27T05:51:22.750Z,15.92
2022-07-27T05:56:27.746Z,16.63
2022-07-27T06:01:31.181Z,15.95
2022-07-27T06:06:52.101Z,14.73
2022-07-27T06:11:57.103Z,15.92
2022-07-27T06:17:00.497Z,15.17
2022-07-27T06:22:03.897Z,14.65
2022-07-27T06:27:08.618Z,14.45
2022-07-27T06:32:12.128Z,13.96
2022-07-27T06:37:17.423Z,13.16
2022-07-27T06:42:24.347Z,12.96
2022-07-27T06:47:28.971Z,12.56
2022-07-27T06:52:32.412Z,12.24
2022-07-27T06:57:37.163Z,11.88
2022-07-27T07:02:51.361Z,11.65
2022-07-27T07:07:55.524Z,13.04
2022-07-27T07:13:05.429Z,14.38
2022-07-27T07:18:09.832Z,14.35
2022-07-27T07:23:13.676Z,16.05
2022-07-27T07:28:22.257Z,14.42
2022-07-27T07:33:27.046Z,13.25
2022-07-27T07:38:30.387Z,12.45
2022-07-27T07:43:36.787Z,12.04
2022-07-27T07:48:43.458Z,11.68
2022-07-27T07:53:46.867Z,12.66
2022-07-27T07:58:51.631Z,12.57
2022-07-27T08:03:55.402Z,12.53
2022-07-27T08:08:58.740Z,13.51
2022-07-27T08:14:03.607Z,15.03
2022-07-27T08:19:08.763Z,15.04
2022-07-27T08:24:12.989Z,15.44
2022-07-27T08:29:18.106Z,16.21
2022-07-27T08:34:26.634Z,17.76
2022-07-27T08:40:35.178Z,19.98
2022-07-27T08:44:55.355Z,20.70
2022-07-27T08:49:59.066Z,22.18
2022-07-27T08:55:03.908Z,22.82
2022-07-27T09:00:10.549Z,23.20
2022-07-27T09:05:14.180Z,23.60
2022-07-27T09:10:31.307Z,24.36
2022-07-27T09:16:15.833Z,26.49
2022-07-27T09:21:10.452Z,25.94
2022-07-27T09:26:30.466Z,26.32
2022-07-27T09:31:43.206Z,26.15
2022-07-27T09:36:57.985Z,27.03
2022-07-27T09:42:03.345Z,25.86
2022-07-27T09:47:23.361Z,27.42
2022-07-27T09:52:29.091Z,28.08
2022-07-27T09:57:32.477Z,28.59
2022-07-27T10:02:37.600Z,29.08
2022-07-27T10:07:41.077Z,29.37
2022-07-27T10:12:49.177Z,28.82
2022-07-27T10:18:06.690Z,27.93
2022-07-27T10:23:26.460Z,29.80
2022-07-27T10:28:31.342Z,27.87
2022-07-27T10:33:46.801Z,28.16
2022-07-27T10:38:52.386Z,29.18
2022-07-27T10:44:28.478Z,29.11
2022-07-27T10:49:40.171Z,27.87
2022-07-27T10:54:49.575Z,31.38
2022-07-27T11:00:08.590Z,30.18
2022-07-27T11:10:44.985Z,29.26
2022-07-27T11:15:55.973Z,29.56
2022-07-27T11:21:25.564Z,28.50
2022-07-27T11:26:37.570Z,29.27
2022-07-27T11:31:55.222Z,29.00
2022-07-27T11:37:03.435Z,29.79
2022-07-27T11:42:12.329Z,30.16
2022-07-27T11:47:24.263Z,31.11
2022-07-27T11:52:29.184Z,31.17
2022-07-27T11:57:33.993Z,31.26
2022-07-27T12:02:37.413Z,33.96
2022-07-27T12:07:44.545Z,33.34
2022-07-27T12:12:50.534Z,33.03
2022-07-27T12:17:57.451Z,32.20
2022-07-27T12:23:07.001Z,31.52
2022-07-27T12:28:13.269Z,30.64
2022-07-27T12:33:28.423Z,30.72
2022-07-27T12:38:40.655Z,31.35
2022-07-27T12:43:44.163Z,31.21
2022-07-27T12:48:47.572Z,30.97
2022-07-27T12:53:52.376Z,31.53
2022-07-27T12:59:00.253Z,32.01
2022-07-27T13:04:03.671Z,32.43
2022-07-27T13:09:08.374Z,32.34
2022-07-27T13:14:11.796Z,32.82
2022-07-27T13:19:16.239Z,32.10
2022-07-27T13:24:22.167Z,32.71
2022-07-27T13:29:25.469Z,32.95
2022-07-27T13:34:28.913Z,34.17
2022-07-27T13:39:34.497Z,36.38
2022-07-27T13:50:01.885Z,37.98
2022-07-27T13:55:09.200Z,38.43
2022-07-27T14:00:14.926Z,38.79
2022-07-27T14:05:19.486Z,38.62
2022-07-27T14:10:39.969Z,39.70
2022-07-27T14:15:53.654Z,39.01
2022-07-27T14:21:00.165Z,38.89
2022-07-27T14:26:06.803Z,39.21
2022-07-27T14:31:13.242Z,38.16
2022-07-27T14:36:16.633Z,38.48
2022-07-27T14:41:21.421Z,39.78
2022-07-27T14:46:25.497Z,39.40
2022-07-27T14:51:28.874Z,38.84
2022-07-27T14:56:33.744Z,38.15
2022-07-27T15:01:37.520Z,37.89
2022-07-27T15:06:40.894Z,38.01
2022-07-27T15:11:45.627Z,37.25
2022-07-27T15:16:50.289Z,37.86
2022-07-27T15:21:53.856Z,38.34
2022-07-27T15:26:58.624Z,37.92
2022-07-27T15:32:02.040Z,38.56
2022-07-27T15:37:07.615Z,38.79
2022-07-27T15:42:12.479Z,39.58
2022-07-27T15:47:15.871Z,39.17
2022-07-27T15:52:19.238Z,39.09
2022-07-27T15:57:24.115Z,39.49
2022-07-27T16:02:29.072Z,39.17
2022-07-27T16:07:40.767Z,40.07
2022-07-27T16:12:46.737Z,40.11
2022-07-27T16:17:50.077Z,40.75
2022-07-27T16:22:53.441Z,40.94
2022-07-27T16:27:58.188Z,41.51
2022-07-27T16:33:03.583Z,41.95
2022-07-27T16:38:06.911Z,42.21
2022-07-27T16:43:11.561Z,41.46
2022-07-27T16:48:15.174Z,42.27
2022-07-27T16:53:18.580Z,42.89
2022-07-27T16:58:23.456Z,44.00
2022-07-27T17:03:27.130Z,45.41
2022-07-27T17:08:30.622Z,45.54
2022-07-27T17:13:35.969Z,45.33
2022-07-27T17:18:40.655Z,45.44
2022-07-27T17:23:45.176Z,45.47
2022-07-27T17:28:51.038Z,45.35
2022-07-27T17:33:54.710Z,45.61
2022-07-27T17:38:58.357Z,45.56
2022-07-27T17:44:03.326Z,45.58
2022-07-27T17:49:07.576Z,45.78
2022-07-27T17:54:11.010Z,45.69
2022-07-27T17:59:36.700Z,46.10
2022-07-27T18:04:40.494Z,45.59
2022-07-27T18:09:44.012Z,45.26
2022-07-27T18:15:02.350Z,45.13
2022-07-27T18:20:09.141Z,45.72
2022-07-27T18:25:12.691Z,44.88
2022-07-27T18:30:17.829Z,44.49
2022-07-27T18:35:21.182Z,46.23
2022-07-27T18:40:24.869Z,49.31
2022-07-27T18:45:34.459Z,49.55
2022-07-27T18:50:39.521Z,52.10
2022-07-27T18:55:43.443Z,53.17
2022-07-27T19:00:48.232Z,53.22
2022-07-27T19:05:52.820Z,54.47
2022-07-27T19:10:56.708Z,55.14
2022-07-27T19:16:01.640Z,56.09
2022-07-27T19:21:05.128Z,56.83
2022-07-27T19:26:10.266Z,57.42
2022-07-27T19:31:23.534Z,57.50
2022-07-27T19:36:27.876Z,58.17
2022-07-27T19:41:31.280Z,58.58
2022-07-27T19:46:36.164Z,59.38
2022-07-27T19:51:39.979Z,59.71
2022-07-27T19:56:43.528Z,59.53
2022-07-27T20:01:48.519Z,59.72
2022-07-27T20:06:51.887Z,59.48
2022-07-27T20:12:00.156Z,59.77
2022-07-27T20:17:06.256Z,60.11
2022-07-27T20:22:09.754Z,60.26
2022-07-27T20:27:13.086Z,60.88
2022-07-27T20:32:17.887Z,60.89
2022-07-27T20:37:21.332Z,61.23
2022-07-27T20:42:24.716Z,61.20
2022-07-27T20:47:34.330Z,61.62
2022-07-27T20:52:38.485Z,62.34
2022-07-27T20:57:41.953Z,62.26
2022-07-27T21:02:47.018Z,62.56
2022-07-27T21:07:50.402Z,62.63
2022-07-27T21:12:54.005Z,63.05
2022-07-27T21:17:58.734Z,62.96
2022-07-27T21:23:19.564Z,63.21
2022-07-27T21:28:24.866Z,63.34
2022-07-27T21:33:29.906Z,63.28
2022-07-27T21:38:33.396Z,63.40
2022-07-27T21:43:36.714Z,63.54
2022-07-27T21:48:41.788Z,63.66
2022-07-27T21:53:45.651Z,63.55
2022-07-27T21:58:49.090Z,63.24
2022-07-27T22:03:53.858Z,63.88
2022-07-27T22:08:57.314Z,64.25
2022-07-27T22:14:00.649Z,63.84
2022-07-27T22:19:05.524Z,64.57
2022-07-27T22:24:09.009Z,64.64
2022-07-27T22:29:12.345Z,64.97
2022-07-27T22:34:17.684Z,64.89
2022-07-27T22:39:21.122Z,65.39
2022-07-27T22:44:24.932Z,65.08
2022-07-27T22:49:29.940Z,64.93
2022-07-27T22:54:35.105Z,64.50
2022-07-27T22:59:38.714Z,64.77
2022-07-27T23:04:43.629Z,65.06
2022-07-27T23:09:47.023Z,65.06
2022-07-27T23:14:50.606Z,64.96
2022-07-27T23:19:55.348Z,65.08
2022-07-27T23:24:58.656Z,64.95
2022-07-27T23:30:01.958Z,64.46
2022-07-27T23:35:09.448Z,64.77
2022-07-27T23:40:13.489Z,65.06
2022-07-27T23:45:16.885Z,65.34
2022-07-27T23:50:21.673Z,65.77
2022-07-27T23:55:25.090Z,65.79
